createdAt,value
2018-07-28T00:00:01.786Z,97980.32
2018-07-28T00:02:29.099Z,97986.45
2018-07-28T00:04:56.356Z,97977.50
2018-07-28T00:07:23.610Z,97981.67
2018-07-28T00:09:50.817Z,97987.46
2018-07-28T00:12:18.064Z,97980.88
2018-07-28T00:14:45.284Z,97980.58
2018-07-28T00:17:14.531Z,97982.61
2018-07-28T00:19:43.649Z,97974.67
2018-07-28T00:22:10.961Z,97972.52
2018-07-28T00:24:38.218Z,97975.73
2018-07-28T00:27:05.507Z,97973.98
2018-07-28T00:29:32.719Z,97976.05
2018-07-28T00:31:59.964Z,97973.44
2018-07-28T00:34:27.323Z,97966.20
2018-07-28T00:36:54.567Z,97969.21
2018-07-28T00:39:21.791Z,97965.48
2018-07-28T00:41:49.178Z,97966.23
2018-07-28T00:44:16.418Z,97962.82
2018-07-28T00:46:43.647Z,97954.49
2018-07-28T00:49:10.870Z,97949.57
2018-07-28T00:51:38.107Z,97947.38
2018-07-28T00:54:05.334Z,97950.27
2018-07-28T00:56:32.824Z,97946.67
2018-07-28T00:59:00.062Z,97942.72
2018-07-28T01:01:27.333Z,97933.02
2018-07-28T01:03:54.777Z,97939.87
2018-07-28T01:06:22.414Z,97938.69
2018-07-28T01:08:49.801Z,97937.50
2018-07-28T01:11:17.071Z,97940.38
2018-07-28T01:13:44.313Z,97931.49
2018-07-28T01:16:11.543Z,97924.97
2018-07-28T01:18:38.874Z,97930.80
2018-07-28T01:21:06.648Z,97930.16
2018-07-28T01:23:33.942Z,97924.25
2018-07-28T01:26:01.160Z,97919.99
2018-07-28T01:28:28.438Z,97911.23
2018-07-28T01:30:55.658Z,97906.86
2018-07-28T01:33:22.914Z,97910.11
2018-07-28T01:35:50.146Z,97910.33
2018-07-28T01:38:17.391Z,97904.05
2018-07-28T01:40:44.614Z,97898.98
2018-07-28T01:43:11.847Z,97903.11
2018-07-28T01:45:39.087Z,97894.90
2018-07-28T01:48:06.550Z,97896.48
2018-07-28T01:50:33.765Z,97895.47
2018-07-28T01:53:01.015Z,97897.66
2018-07-28T01:55:28.220Z,97884.83
2018-07-28T01:57:55.462Z,97891.38
2018-07-28T02:00:22.670Z,97895.63
2018-07-28T02:02:49.916Z,97890.63
2018-07-28T02:05:17.179Z,97895.17
2018-07-28T02:07:44.450Z,97895.16
2018-07-28T02:10:11.706Z,97890.77
2018-07-28T02:12:38.983Z,97888.31
2018-07-28T02:15:08.622Z,97881.45
2018-07-28T02:17:35.890Z,97881.01
2018-07-28T02:20:04.353Z,97871.41
2018-07-28T02:22:31.610Z,97877.46
2018-07-28T02:24:58.879Z,97874.78
2018-07-28T02:27:26.177Z,97869.83
2018-07-28T02:29:53.434Z,97869.83
2018-07-28T02:32:20.667Z,97867.38
2018-07-28T02:34:47.918Z,97864.07
2018-07-28T02:37:15.167Z,97859.30
2018-07-28T02:39:42.441Z,97852.48
2018-07-28T02:42:09.678Z,97848.81
2018-07-28T02:44:36.903Z,97844.63
2018-07-28T02:47:04.274Z,97841.30
2018-07-28T02:49:31.508Z,97847.95
2018-07-28T02:51:58.807Z,97845.73
2018-07-28T02:54:26.031Z,97843.95
2018-07-28T02:56:53.286Z,97847.36
2018-07-28T02:59:20.549Z,97848.84
2018-07-28T03:01:47.822Z,97851.52
2018-07-28T03:04:15.148Z,97853.70
2018-07-28T03:06:42.387Z,97854.98
2018-07-28T03:09:11.886Z,97849.45
2018-07-28T03:11:39.908Z,97848.45
2018-07-28T03:14:07.197Z,97846.45
2018-07-28T03:16:34.701Z,97842.77
2018-07-28T03:19:03.439Z,97849.41
2018-07-28T03:21:32.330Z,97844.73
2018-07-28T03:23:59.590Z,97847.02
2018-07-28T03:26:26.850Z,97843.41
2018-07-28T03:28:54.124Z,97845.96
2018-07-28T03:31:21.558Z,97848.81
2018-07-28T03:33:48.942Z,97847.97
2018-07-28T03:36:16.582Z,97850.63
2018-07-28T03:38:43.832Z,97853.39
2018-07-28T03:41:11.103Z,97853.66
2018-07-28T03:43:38.358Z,97850.05
2018-07-28T03:46:05.658Z,97849.84
2018-07-28T03:48:32.941Z,97850.62
2018-07-28T03:51:00.211Z,97842.75
2018-07-28T03:53:27.497Z,97842.87
2018-07-28T03:55:54.720Z,97835.34
2018-07-28T03:58:21.966Z,97834.31
2018-07-28T04:00:49.226Z,97836.17
2018-07-28T04:03:16.497Z,97839.62
2018-07-28T04:05:43.743Z,97840.95
2018-07-28T04:08:11.005Z,97841.97
2018-07-28T04:10:38.298Z,97842.65
2018-07-28T04:13:05.548Z,97834.19
2018-07-28T04:15:32.862Z,97845.58
2018-07-28T04:18:00.120Z,97840.83
2018-07-28T04:20:27.553Z,97834.55
2018-07-28T04:22:55.024Z,97842.89
2018-07-28T04:25:22.439Z,97840.48
2018-07-28T04:27:50.055Z,97843.02
2018-07-28T04:30:17.325Z,97838.41
2018-07-28T04:32:44.614Z,97848.38
2018-07-28T04:35:11.888Z,97855.56
2018-07-28T04:37:39.552Z,97844.54
2018-07-28T04:40:07.958Z,97840.14
2018-07-28T04:42:35.222Z,97838.01
2018-07-28T04:45:02.494Z,97840.56
2018-07-28T04:47:29.784Z,97840.82
2018-07-28T04:49:57.034Z,97835.20
2018-07-28T04:52:24.285Z,97845.54
2018-07-28T04:54:51.525Z,97843.41
2018-07-28T04:57:18.746Z,97840.92
2018-07-28T04:59:46.014Z,97838.27
2018-07-28T05:02:13.288Z,97835.84
2018-07-28T05:04:40.534Z,97829.45
2018-07-28T05:07:08.042Z,97819.72
2018-07-28T05:09:35.348Z,97817.69
2018-07-28T05:12:02.619Z,97809.98
2018-07-28T05:14:29.971Z,97809.33
2018-07-28T05:16:57.218Z,97806.69
2018-07-28T05:19:24.475Z,97804.08
2018-07-28T05:21:51.745Z,97806.51
2018-07-28T05:24:19.154Z,97800.44
2018-07-28T05:26:46.587Z,97800.19
2018-07-28T05:29:13.822Z,97807.64
2018-07-28T05:31:41.406Z,97793.95
2018-07-28T05:34:09.149Z,97796.63
2018-07-28T05:36:36.558Z,97798.39
2018-07-28T05:39:07.580Z,97797.48
2018-07-28T05:41:34.855Z,97802.55
2018-07-28T05:44:02.153Z,97800.47
2018-07-28T05:46:29.495Z,97802.30
2018-07-28T05:48:56.726Z,97796.52
2018-07-28T05:51:23.995Z,97793.50
2018-07-28T05:53:51.256Z,97788.77
2018-07-28T05:56:18.484Z,97788.41
2018-07-28T05:58:45.742Z,97781.04
2018-07-28T06:01:13.023Z,97779.83
2018-07-28T06:03:40.296Z,97778.55
2018-07-28T06:06:07.611Z,97771.59
2018-07-28T06:08:34.867Z,97773.50
2018-07-28T06:11:02.127Z,97768.77
2018-07-28T06:13:29.399Z,97764.42
2018-07-28T06:15:56.667Z,97766.20
2018-07-28T06:18:23.883Z,97766.55
2018-07-28T06:20:51.178Z,97767.28
2018-07-28T06:23:18.406Z,97770.75
2018-07-28T06:25:45.693Z,97767.65
2018-07-28T06:28:12.912Z,97777.45
2018-07-28T06:30:40.167Z,97778.33
2018-07-28T06:33:07.429Z,97782.84
2018-07-28T06:35:34.696Z,97791.00
2018-07-28T06:38:01.979Z,97783.13
2018-07-28T06:40:29.242Z,97786.06
2018-07-28T06:42:56.478Z,97788.02
2018-07-28T06:45:23.753Z,97786.73
2018-07-28T06:47:51.000Z,97783.05
2018-07-28T06:50:18.275Z,97780.85
2018-07-28T06:52:45.504Z,97784.06
2018-07-28T06:55:12.768Z,97788.14
2018-07-28T06:57:39.992Z,97774.67
2018-07-28T07:00:08.343Z,97770.55
2018-07-28T07:02:35.763Z,97779.33
2018-07-28T07:05:03.239Z,97779.19
2018-07-28T07:07:30.580Z,97782.55
2018-07-28T07:09:57.787Z,97782.65
2018-07-28T07:12:25.047Z,97775.73
2018-07-28T07:14:52.285Z,97773.24
2018-07-28T07:17:19.635Z,97772.44
2018-07-28T07:19:46.858Z,97771.52
2018-07-28T07:22:14.188Z,97777.26
2018-07-28T07:24:41.443Z,97766.80
2018-07-28T07:27:09.019Z,97765.76
2018-07-28T07:29:36.311Z,97760.09
2018-07-28T07:32:03.567Z,97764.27
2018-07-28T07:34:30.856Z,97752.94
2018-07-28T07:36:58.126Z,97753.84
2018-07-28T07:39:25.498Z,97749.97
2018-07-28T07:41:52.862Z,97745.86
2018-07-28T07:44:20.160Z,97747.64
2018-07-28T07:46:47.582Z,97738.53
2018-07-28T07:49:14.850Z,97746.66
2018-07-28T07:51:42.178Z,97749.05
2018-07-28T07:54:09.427Z,97742.05
2018-07-28T07:56:36.681Z,97734.85
2018-07-28T07:59:04.208Z,97729.41
2018-07-28T08:01:31.461Z,97737.89
2018-07-28T08:03:58.757Z,97733.00
2018-07-28T08:06:26.069Z,97729.57
2018-07-28T08:08:53.303Z,97725.16
2018-07-28T08:11:22.036Z,97736.67
2018-07-28T08:13:49.283Z,97726.89
2018-07-28T08:16:16.667Z,97725.28
2018-07-28T08:18:44.055Z,97723.25
2018-07-28T08:21:11.416Z,97723.38
2018-07-28T08:23:38.966Z,97713.17
2018-07-28T08:26:06.213Z,97710.59
2018-07-28T08:28:33.562Z,97709.75
2018-07-28T08:31:00.847Z,97705.13
2018-07-28T08:33:28.230Z,97709.38
2018-07-28T08:35:55.560Z,97704.41
2018-07-28T08:38:22.825Z,97712.81
2018-07-28T08:40:50.112Z,97711.75
2018-07-28T08:43:17.384Z,97707.14
2018-07-28T08:45:44.684Z,97709.45
2018-07-28T08:48:12.704Z,97709.77
2018-07-28T08:50:40.422Z,97704.83
2018-07-28T08:53:07.846Z,97706.64
2018-07-28T08:55:35.117Z,97705.97
2018-07-28T08:58:02.751Z,97710.67
2018-07-28T09:00:30.275Z,97701.35
2018-07-28T09:02:57.608Z,97698.73
2018-07-28T09:05:25.051Z,97706.91
2018-07-28T09:07:52.340Z,97703.75
2018-07-28T09:10:19.645Z,97701.44
2018-07-28T09:12:46.925Z,97699.60
2018-07-28T09:15:14.207Z,97691.39
2018-07-28T09:17:41.897Z,97697.69
2018-07-28T09:20:10.253Z,97693.33
2018-07-28T09:22:37.809Z,97696.72
2018-07-28T09:25:05.201Z,97686.59
2018-07-28T09:27:32.534Z,97695.38
2018-07-28T09:29:59.844Z,97687.23
2018-07-28T09:32:27.164Z,97686.32
2018-07-28T09:34:54.445Z,97688.70
2018-07-28T09:37:21.801Z,97682.45
2018-07-28T09:39:49.196Z,97685.61
2018-07-28T09:42:16.655Z,97673.21
2018-07-28T09:44:43.922Z,97672.76
2018-07-28T09:47:14.752Z,97667.53
2018-07-28T09:49:42.214Z,97668.45
2018-07-28T09:52:09.519Z,97672.47
2018-07-28T09:54:46.732Z,97668.87
2018-07-28T09:57:14.061Z,97664.36
2018-07-28T09:59:41.479Z,97660.25
2018-07-28T10:02:08.756Z,97664.59
2018-07-28T10:04:36.038Z,97659.84
2018-07-28T10:07:03.776Z,97665.38
2018-07-28T10:09:32.744Z,97653.47
2018-07-28T10:12:01.881Z,97657.05
2018-07-28T10:14:30.115Z,97649.30
2018-07-28T10:16:57.456Z,97647.03
2018-07-28T10:19:26.001Z,97647.69
2018-07-28T10:21:54.473Z,97650.98
2018-07-28T10:24:22.428Z,97643.50
2018-07-28T10:26:49.792Z,97645.57
2018-07-28T10:29:17.089Z,97645.27
2018-07-28T10:31:46.386Z,97646.74
2018-07-28T10:34:13.704Z,97641.84
2018-07-28T10:36:41.192Z,97641.73
2018-07-28T10:39:14.380Z,97634.72
2018-07-28T10:41:42.213Z,97629.17
2018-07-28T10:44:09.558Z,97630.06
2018-07-28T10:46:36.868Z,97623.99
2018-07-28T10:49:04.568Z,97613.75
2018-07-28T10:51:31.810Z,97625.63
2018-07-28T10:53:59.117Z,97610.98
2018-07-28T10:56:26.409Z,97614.08
2018-07-28T10:58:53.904Z,97609.59
2018-07-28T11:01:21.170Z,97615.21
2018-07-28T11:03:48.422Z,97614.81
2018-07-28T11:06:15.699Z,97608.52
2018-07-28T11:08:43.036Z,97604.10
2018-07-28T11:11:10.458Z,97606.84
2018-07-28T11:13:37.727Z,97604.66
2018-07-28T11:16:05.182Z,97602.02
2018-07-28T11:18:32.623Z,97602.11
2018-07-28T11:20:59.895Z,97599.44
2018-07-28T11:23:38.483Z,97599.64
2018-07-28T11:26:06.307Z,97598.37
2018-07-28T11:28:33.698Z,97608.66
2018-07-28T11:31:00.970Z,97609.02
2018-07-28T11:33:40.906Z,97611.75
2018-07-28T11:36:19.583Z,97608.20
2018-07-28T11:38:58.172Z,97615.84
2018-07-28T11:41:36.701Z,97626.16
2018-07-28T11:44:15.380Z,97636.28
2018-07-28T11:46:42.629Z,97662.11
2018-07-28T11:49:09.886Z,97709.09
2018-07-28T11:51:37.134Z,97781.52
2018-07-28T11:54:04.426Z,97702.12
2018-07-28T11:56:31.632Z,97678.83
2018-07-28T11:58:59.027Z,97683.60
2018-07-28T12:01:26.225Z,97673.12
2018-07-28T12:03:53.494Z,97673.11
2018-07-28T12:06:20.729Z,97687.09
2018-07-28T12:08:48.007Z,97674.88
2018-07-28T12:11:15.450Z,97669.92
2018-07-28T12:13:42.702Z,97654.35
2018-07-28T12:16:09.986Z,97651.56
2018-07-28T12:18:37.378Z,97656.19
2018-07-28T12:21:04.879Z,97645.33
2018-07-28T12:23:32.123Z,97650.75
2018-07-28T12:25:59.375Z,97651.83
2018-07-28T12:28:26.670Z,97645.75
2018-07-28T12:30:53.968Z,97666.41
2018-07-28T12:33:21.194Z,97670.59
2018-07-28T12:35:48.438Z,97679.45
2018-07-28T12:38:15.756Z,97670.46
2018-07-28T12:40:43.709Z,97684.72
2018-07-28T12:43:10.959Z,97686.30
2018-07-28T12:45:38.440Z,97677.95
2018-07-28T12:48:05.844Z,97679.89
2018-07-28T12:50:33.207Z,97671.94
2018-07-28T12:53:00.649Z,97672.43
2018-07-28T12:55:27.990Z,97665.75
2018-07-28T12:57:55.819Z,97667.42
2018-07-28T13:00:23.178Z,97663.15
2018-07-28T13:02:50.527Z,97665.00
2018-07-28T13:05:17.892Z,97656.75
2018-07-28T13:07:45.196Z,97665.92
2018-07-28T13:10:12.645Z,97665.25
2018-07-28T13:12:39.953Z,97666.52
2018-07-28T13:15:07.318Z,97659.95
2018-07-28T13:17:34.919Z,97660.45
2018-07-28T13:20:02.308Z,97656.45
2018-07-28T13:22:30.103Z,97654.64
2018-07-28T13:24:57.637Z,97654.45
2018-07-28T13:27:24.932Z,97649.59
2018-07-28T13:29:52.488Z,97651.22
2018-07-28T13:32:19.753Z,97652.04
2018-07-28T13:34:46.996Z,97648.70
2018-07-28T13:37:14.290Z,97643.06
2018-07-28T13:39:41.559Z,97643.62
2018-07-28T13:42:08.864Z,97649.34
2018-07-28T13:44:36.050Z,97635.34
2018-07-28T13:47:03.529Z,97643.56
2018-07-28T13:49:30.846Z,97650.69
2018-07-28T13:51:58.097Z,97651.57
2018-07-28T13:54:25.339Z,97661.23
2018-07-28T13:56:52.566Z,97658.63
2018-07-28T13:59:36.705Z,97668.36
2018-07-28T14:02:04.037Z,97670.08
2018-07-28T14:04:31.312Z,97676.13
2018-07-28T14:06:58.593Z,97668.31
2018-07-28T14:09:25.887Z,97661.28
2018-07-28T14:11:53.164Z,97663.35
2018-07-28T14:14:21.624Z,97671.09
2018-07-28T14:16:48.910Z,97682.45
2018-07-28T14:19:16.336Z,97688.59
2018-07-28T14:21:43.809Z,97682.01
2018-07-28T14:24:11.074Z,97691.30
2018-07-28T14:26:38.387Z,97689.66
2018-07-28T14:29:05.769Z,97695.09
2018-07-28T14:31:33.141Z,97695.47
2018-07-28T14:34:00.319Z,97700.75
2018-07-28T14:36:27.699Z,97711.05
2018-07-28T14:38:55.184Z,97713.44
2018-07-28T14:41:24.224Z,97715.42
2018-07-28T14:43:51.561Z,97713.19
2018-07-28T14:46:21.694Z,97715.05
2018-07-28T14:48:49.501Z,97715.06
2018-07-28T14:51:16.879Z,97705.66
2018-07-28T14:53:44.186Z,97701.59
2018-07-28T14:56:11.555Z,97697.55
2018-07-28T14:58:39.283Z,97693.50
2018-07-28T15:01:06.703Z,97703.09
2018-07-28T15:03:34.009Z,97709.02
2018-07-28T15:06:01.711Z,97706.01
2018-07-28T15:08:29.403Z,97709.02
2018-07-28T15:10:56.970Z,97708.36
2018-07-28T15:13:24.243Z,97712.69
2018-07-28T15:15:51.593Z,97713.05
2018-07-28T15:18:19.026Z,97712.21
2018-07-28T15:20:46.657Z,97717.66
2018-07-28T15:23:14.227Z,97720.37
2018-07-28T15:25:41.540Z,97713.56
2018-07-28T15:28:09.050Z,97715.25
2018-07-28T15:30:36.611Z,97704.19
2018-07-28T15:33:04.851Z,97703.55
2018-07-28T15:35:32.228Z,97701.78
2018-07-28T15:37:59.978Z,97706.85
2018-07-28T15:40:27.280Z,97708.64
2018-07-28T15:42:54.746Z,97698.13
2018-07-28T15:45:22.076Z,97697.63
2018-07-28T15:47:49.533Z,97703.58
2018-07-28T15:50:16.816Z,97705.03
2018-07-28T15:52:44.159Z,97710.13
2018-07-28T15:55:11.476Z,97707.94
2018-07-28T15:57:39.041Z,97712.97
2018-07-28T16:00:07.560Z,97710.72
2018-07-28T16:02:34.855Z,97720.39
2018-07-28T16:05:02.110Z,97726.14
2018-07-28T16:07:29.454Z,97729.10
2018-07-28T16:09:56.792Z,97741.53
2018-07-28T16:12:24.095Z,97749.31
2018-07-28T16:14:51.392Z,97750.95
2018-07-28T16:17:18.835Z,97757.08
2018-07-28T16:19:46.175Z,97755.91
2018-07-28T16:22:13.460Z,97757.78
2018-07-28T16:24:40.827Z,97755.26
2018-07-28T16:27:08.279Z,97757.50
2018-07-28T16:29:35.597Z,97757.94
2018-07-28T16:32:02.911Z,97766.09
2018-07-28T16:34:30.947Z,97768.14
2018-07-28T16:36:58.318Z,97771.05
2018-07-28T16:39:25.745Z,97769.02
2018-07-28T16:41:53.182Z,97781.72
2018-07-28T16:44:20.700Z,97778.69
2018-07-28T16:46:48.018Z,97780.23
2018-07-28T16:49:15.433Z,97778.39
2018-07-28T16:51:42.717Z,97785.44
2018-07-28T16:54:10.009Z,97787.12
2018-07-28T16:56:37.288Z,97794.91
2018-07-28T16:59:04.915Z,97793.23
2018-07-28T17:01:32.241Z,97805.04
2018-07-28T17:03:59.567Z,97808.58
2018-07-28T17:06:26.817Z,97820.38
2018-07-28T17:08:55.422Z,97812.95
2018-07-28T17:11:22.686Z,97811.74
2018-07-28T17:13:50.221Z,97817.52
2018-07-28T17:16:17.561Z,97818.17
2018-07-28T17:18:46.208Z,97816.62
2018-07-28T17:21:15.684Z,97821.21
2018-07-28T17:23:43.624Z,97815.78
2018-07-28T17:26:14.259Z,97820.28
2018-07-28T17:28:41.635Z,97817.75
2018-07-28T17:31:09.214Z,97816.20
2018-07-28T17:33:51.298Z,97811.64
2018-07-28T17:36:19.265Z,97815.35
2018-07-28T17:38:59.379Z,97816.37
2018-07-28T17:41:26.808Z,97819.67
2018-07-28T17:43:55.824Z,97823.90
2018-07-28T17:46:25.401Z,97835.21
2018-07-28T17:48:54.616Z,97839.36
2018-07-28T17:51:34.528Z,97841.38
2018-07-28T17:56:47.641Z,97889.41
2018-07-28T17:59:15.606Z,97911.73
2018-07-28T18:01:43.314Z,97926.44
2018-07-28T18:04:10.822Z,97934.41
2018-07-28T18:06:38.482Z,97946.20
2018-07-28T18:09:07.406Z,97968.80
2018-07-28T18:11:34.967Z,97983.65
2018-07-28T18:14:02.568Z,98001.14
2018-07-28T18:16:30.110Z,98015.64
2018-07-28T18:18:57.674Z,98025.61
2018-07-28T18:21:25.086Z,98035.22
2018-07-28T18:23:52.673Z,98051.83
2018-07-28T18:26:20.086Z,98056.46
2018-07-28T18:28:47.435Z,98054.85
2018-07-28T18:31:14.894Z,98069.48
2018-07-28T18:33:43.082Z,98067.64
2018-07-28T18:36:11.572Z,98069.34
2018-07-28T18:38:40.571Z,98069.69
2018-07-28T18:41:10.105Z,98068.83
2018-07-28T18:43:38.433Z,98058.30
2018-07-28T18:46:06.381Z,98050.88
2018-07-28T18:48:33.824Z,98041.39
2018-07-28T18:51:02.238Z,98039.66
2018-07-28T18:53:29.823Z,98042.95
2018-07-28T18:55:57.367Z,98044.39
2018-07-28T18:58:25.393Z,98044.83
2018-07-28T19:00:53.329Z,98041.61
2018-07-28T19:03:21.080Z,98031.66
2018-07-28T19:05:49.581Z,98029.56
2018-07-28T19:08:18.342Z,98039.30
2018-07-28T19:10:46.518Z,98042.58
2018-07-28T19:13:21.593Z,98057.63
2018-07-28T19:15:52.058Z,98049.92
2018-07-28T19:18:27.720Z,98053.02
2018-07-28T19:20:57.448Z,98059.48
2018-07-28T19:23:32.238Z,98054.42
2018-07-28T19:26:02.503Z,98043.02
2018-07-28T19:28:37.629Z,98054.80
2018-07-28T19:31:07.492Z,98058.09
2018-07-28T19:33:38.490Z,98072.13
2018-07-28T19:36:13.850Z,98064.94
2018-07-28T19:38:42.836Z,98062.75
2018-07-28T19:41:10.712Z,98054.97
2018-07-28T19:43:38.110Z,98056.30
2018-07-28T19:46:05.648Z,98045.33
2018-07-28T19:48:33.343Z,98047.35
2018-07-28T19:51:01.409Z,98051.44
2018-07-28T19:53:32.791Z,98050.50
2018-07-28T19:56:00.563Z,98050.92
2018-07-28T19:58:28.358Z,98057.73
2018-07-28T20:00:55.881Z,98060.33
2018-07-28T20:03:23.492Z,98061.48
2018-07-28T20:05:51.452Z,98066.67
2018-07-28T20:08:19.041Z,98072.05
2018-07-28T20:10:47.621Z,98074.39
2018-07-28T20:13:17.336Z,98067.39
2018-07-28T20:15:46.066Z,98067.95
2018-07-28T20:18:13.990Z,98084.17
2018-07-28T20:20:42.386Z,98078.47
2018-07-28T20:23:10.432Z,98076.66
2018-07-28T20:25:38.266Z,98073.13
2018-07-28T20:28:06.264Z,98072.25
2018-07-28T20:30:34.611Z,98083.73
2018-07-28T20:33:04.735Z,98112.27
2018-07-28T20:35:32.298Z,98105.84
2018-07-28T20:37:59.787Z,98105.84
2018-07-28T20:40:27.398Z,98105.25
2018-07-28T20:42:54.712Z,98121.23
2018-07-28T20:45:22.241Z,98126.67
2018-07-28T20:47:49.548Z,98134.83
2018-07-28T20:50:16.834Z,98124.64
2018-07-28T20:52:44.084Z,98120.27
2018-07-28T20:55:11.360Z,98120.64
2018-07-28T20:57:38.649Z,98123.27
2018-07-28T21:00:06.929Z,98134.31
2018-07-28T21:02:34.401Z,98133.56
2018-07-28T21:05:01.695Z,98134.09
2018-07-28T21:07:29.006Z,98134.97
2018-07-28T21:09:56.306Z,98136.58
2018-07-28T21:12:23.593Z,98139.59
2018-07-28T21:14:51.214Z,98136.37
2018-07-28T21:17:18.515Z,98137.80
2018-07-28T21:19:45.934Z,98136.84
2018-07-28T21:22:13.270Z,98147.32
2018-07-28T21:24:40.752Z,98154.55
2018-07-28T21:27:08.058Z,98155.62
2018-07-28T21:29:35.333Z,98162.16
2018-07-28T21:32:03.107Z,98168.83
2018-07-28T21:34:30.451Z,98170.44
2018-07-28T21:36:57.767Z,98171.11
2018-07-28T21:39:25.023Z,98170.92
2018-07-28T21:41:52.351Z,98170.27
2018-07-28T21:44:19.874Z,98168.43
2018-07-28T21:46:47.198Z,98170.40
2018-07-28T21:49:14.469Z,98183.27
2018-07-28T21:51:41.803Z,98193.46
2018-07-28T21:54:09.061Z,98204.22
2018-07-28T21:56:36.379Z,98212.59
2018-07-28T21:59:03.648Z,98208.23
2018-07-28T22:01:30.992Z,98210.93
2018-07-28T22:04:01.683Z,98206.00
2018-07-28T22:06:29.306Z,98216.94
2018-07-28T22:08:56.579Z,98226.85
2018-07-28T22:11:23.847Z,98225.93
2018-07-28T22:13:51.150Z,98234.47
2018-07-28T22:16:18.468Z,98237.33
2018-07-28T22:18:45.723Z,98245.41
2018-07-28T22:21:13.019Z,98248.06
2018-07-28T22:23:40.432Z,98255.95
2018-07-28T22:26:07.751Z,98251.95
2018-07-28T22:28:35.040Z,98252.27
2018-07-28T22:31:02.347Z,98257.02
2018-07-28T22:33:29.716Z,98257.39
2018-07-28T22:35:56.986Z,98258.63
2018-07-28T22:38:24.247Z,98259.33
2018-07-28T22:40:58.211Z,98257.12
2018-07-28T22:43:25.502Z,98258.55
2018-07-28T22:45:52.738Z,98282.16
2018-07-28T22:48:20.018Z,98271.09
2018-07-28T22:50:47.291Z,98277.28
2018-07-28T22:53:14.550Z,98281.66
2018-07-28T22:55:41.812Z,98286.23
2018-07-28T22:58:09.082Z,98288.63
2018-07-28T23:00:36.406Z,98289.57
2018-07-28T23:03:04.624Z,98283.31
2018-07-28T23:05:31.874Z,98283.11
2018-07-28T23:07:59.146Z,98282.90
2018-07-28T23:10:26.415Z,98289.02
2018-07-28T23:12:53.684Z,98303.00
2018-07-28T23:15:20.971Z,98306.52
2018-07-28T23:17:48.282Z,98305.94
2018-07-28T23:20:15.548Z,98309.94
2018-07-28T23:22:42.835Z,98311.09
2018-07-28T23:25:10.091Z,98311.84
2018-07-28T23:27:37.398Z,98314.52
2018-07-28T23:30:09.140Z,98319.63
2018-07-28T23:32:36.954Z,98307.53
2018-07-28T23:35:04.387Z,98315.64
2018-07-28T23:37:31.694Z,98318.52
2018-07-28T23:39:58.921Z,98329.66
2018-07-28T23:42:26.197Z,98334.72
2018-07-28T23:47:27.279Z,98347.75
2018-07-28T23:49:54.550Z,98354.52
2018-07-28T23:52:21.822Z,98368.81
2018-07-28T23:54:49.061Z,98363.48
2018-07-28T23:57:16.345Z,98358.01
2018-07-28T23:59:43.632Z,98363.06
